Time;durP1;ratioP1;P1;durP2;ratioP2;P2;SDS_P1;SDS_P2;PMS_P1;PMS_P2;Temp;Humidity;BMP_temperature;BMP_pressure;BME280_temperature;BME280_humidity;BME280_pressure;Samples;Min_cycle;Max_cycle;Signal;HPM_P1;HPM_P2
2022/07/03 00:01:21;;;;;;;1999.90;999.90;;;;;;;16.91;100.00;94474.53;5031772;28;20245;-53
2022/07/03 00:03:47;;;;;;;1999.90;999.90;;;;;;;16.86;100.00;94484.19;5033195;28;20194;-51
2022/07/03 00:06:12;;;;;;;1999.90;999.90;;;;;;;16.86;100.00;94483.44;5032614;28;20232;-45
2022/07/03 00:08:38;;;;;;;1999.90;999.90;;;;;;;16.85;100.00;94481.88;5032983;28;20186;-64
2022/07/03 00:11:04;;;;;;;1999.90;999.90;;;;;;;16.90;100.00;94484.78;5032852;28;20285;-67
2022/07/03 00:13:30;;;;;;;1999.90;999.90;;;;;;;16.94;100.00;94490.91;5032796;28;20182;-67
2022/07/03 00:15:55;;;;;;;1999.90;999.90;;;;;;;16.98;100.00;94479.69;5032470;28;20221;-67
2022/07/03 00:18:21;;;;;;;1999.90;999.90;;;;;;;17.03;100.00;94479.06;5032556;28;20277;-67
2022/07/03 00:20:49;;;;;;;1999.90;999.90;;;;;;;17.07;100.00;94487.91;5032466;28;20244;-67
2022/07/03 00:23:21;;;;;;;1999.90;999.90;;;;;;;17.13;100.00;94503.41;5032422;28;20178;-67
2022/07/03 00:25:48;;;;;;;1999.90;999.90;;;;;;;17.19;100.00;94509.78;5032496;28;20193;-66
2022/07/03 00:28:14;;;;;;;1999.90;999.90;;;;;;;17.22;100.00;94522.66;5032806;28;20190;-48
2022/07/03 00:30:42;;;;;;;1999.90;999.90;;;;;;;17.26;100.00;94550.84;5032701;28;20201;-45
2022/07/03 00:33:07;;;;;;;1999.90;999.90;;;;;;;17.31;100.00;94575.06;5032334;28;20194;-45
2022/07/03 00:35:36;;;;;;;1999.90;999.90;;;;;;;17.38;100.00;94604.34;5032720;28;20201;-49
2022/07/03 00:38:02;;;;;;;1999.90;999.90;;;;;;;17.38;100.00;94624.44;5032234;28;20210;-47
2022/07/03 00:40:29;;;;;;;1999.90;999.90;;;;;;;17.43;100.00;94636.84;5032293;28;20226;-47
2022/07/03 00:42:55;;;;;;;1999.90;999.90;;;;;;;17.47;100.00;94654.00;5032020;28;20285;-55
2022/07/03 00:45:21;;;;;;;1999.90;999.90;;;;;;;17.50;100.00;94664.91;5032330;28;20186;-62
2022/07/03 00:47:47;;;;;;;1999.90;999.90;;;;;;;17.56;100.00;94673.31;5032275;28;20193;-60
2022/07/03 00:50:14;;;;;;;1999.90;999.90;;;;;;;17.59;100.00;94686.94;5032258;28;20205;-60
2022/07/03 00:52:46;;;;;;;1999.90;999.90;;;;;;;17.61;100.00;94692.78;5032699;28;20218;-61
2022/07/03 00:55:17;;;;;;;1999.90;999.90;;;;;;;17.65;100.00;94709.94;5032750;28;20248;-60
2022/07/03 00:57:47;;;;;;;1999.90;999.90;;;;;;;17.66;100.00;94716.25;5032111;28;20197;-60
2022/07/03 01:00:15;;;;;;;1999.90;999.90;;;;;;;17.68;100.00;94731.13;5032263;28;20205;-60
2022/07/03 01:02:40;;;;;;;1999.90;999.90;;;;;;;17.68;100.00;94725.59;5032128;28;20244;-53
2022/07/03 01:05:24;;;;;;;1999.90;999.90;;;;;;;17.72;100.00;94714.38;5032750;28;20194;-58
2022/07/03 01:08:07;;;;;;;1999.90;999.90;;;;;;;17.77;100.00;94711.75;5032598;28;20186;-59
2022/07/03 01:10:40;;;;;;;1999.90;999.90;;;;;;;17.80;100.00;94715.56;5031942;28;20190;-59
2022/07/03 01:13:31;;;;;;;1999.90;999.90;;;;;;;17.80;100.00;94738.44;5033894;28;20261;-59
2022/07/03 01:16:02;;;;;;;1999.90;999.90;;;;;;;17.82;100.00;94773.91;5036203;28;20198;-59
2022/07/03 01:18:36;;;;;;;1999.90;999.90;;;;;;;17.82;100.00;94776.66;5036185;28;20214;-60
2022/07/03 01:21:22;;;;;;;1999.90;999.90;;;;;;;17.80;100.00;94790.16;5036068;28;20221;-45
2022/07/03 01:24:02;;;;;;;1999.90;999.90;;;;;;;17.77;100.00;94804.91;5035696;28;20190;-54
2022/07/03 01:26:34;;;;;;;1999.90;999.90;;;;;;;17.74;100.00;94814.13;5035305;28;20232;-54
2022/07/03 01:29:06;;;;;;;1999.90;999.90;;;;;;;17.74;100.00;94805.84;5036146;28;20196;-54
2022/07/03 01:31:31;;;;;;;1999.90;999.90;;;;;;;17.69;100.00;94796.16;5035817;28;20194;-55
2022/07/03 01:33:59;;;;;;;1999.90;999.90;;;;;;;17.68;100.00;94791.09;5035369;28;20290;-54
2022/07/03 01:36:29;;;;;;;1999.90;999.90;;;;;;;17.63;100.00;94777.94;5034925;28;20214;-55
2022/07/03 01:38:58;;;;;;;1999.90;999.90;;;;;;;17.61;100.00;94766.56;5035348;28;20206;-59
2022/07/03 01:41:27;;;;;;;1999.90;999.90;;;;;;;17.60;100.00;94762.28;5035524;28;20225;-66
2022/07/03 01:43:57;;;;;;;1999.90;999.90;;;;;;;17.58;100.00;94759.22;5035124;28;20226;-66
2022/07/03 01:46:29;;;;;;;1999.90;999.90;;;;;;;17.51;100.00;94754.00;5035330;28;20198;-65
2022/07/03 01:48:56;;;;;;;1999.90;999.90;;;;;;;17.43;100.00;94741.75;5035200;28;20190;-66
2022/07/03 01:51:23;;;;;;;1999.90;999.90;;;;;;;17.31;100.00;94718.59;5035198;28;20269;-66
2022/07/03 01:53:50;;;;;;;1999.90;999.90;;;;;;;17.30;100.00;94714.28;5034924;28;20204;-65
2022/07/03 01:56:17;;;;;;;1999.90;999.90;;;;;;;17.33;100.00;94715.38;5034919;28;20273;-51
2022/07/03 01:58:43;;;;;;;1999.90;999.90;;;;;;;17.31;100.00;94701.25;5035462;28;20191;-53
2022/07/03 02:01:20;;;;;;;1999.90;999.90;;;;;;;17.31;100.00;94706.78;5034649;28;20210;-60
2022/07/03 02:04:43;;;;;;;1999.90;999.90;;;;;;;17.30;100.00;94710.78;5036029;28;20656;-60
2022/07/03 02:07:17;;;;;;;1999.90;999.90;;;;;;;17.26;100.00;94701.91;5034342;28;20297;-60
2022/07/03 02:10:02;;;;;;;1999.90;999.90;;;;;;;17.21;100.00;94710.78;5034976;28;20230;-60
2022/07/03 02:12:38;;;;;;;1999.90;999.90;;;;;;;17.16;100.00;94712.19;5035111;28;20195;-61
2022/07/03 02:15:07;;;;;;;1999.90;999.90;;;;;;;17.15;100.00;94707.13;5035050;28;20216;-46
2022/07/03 02:17:43;;;;;;;1999.90;999.90;;;;;;;17.13;100.00;94693.78;5034622;28;20218;-61
2022/07/03 02:20:09;;;;;;;1999.90;999.90;;;;;;;17.11;100.00;94676.16;5034651;28;20194;-59
2022/07/03 02:22:39;;;;;;;1999.90;999.90;;;;;;;17.12;100.00;94674.94;5034352;28;20210;-58
2022/07/03 02:25:06;;;;;;;1999.90;999.90;;;;;;;17.09;100.00;94662.06;5033471;28;20198;-59
2022/07/03 02:27:52;;;;;;;1999.90;999.90;;;;;;;17.07;100.00;94681.84;5035431;28;20196;-59
2022/07/03 02:30:18;;;;;;;1999.90;999.90;;;;;;;17.07;100.00;94692.09;5034571;28;20186;-58
2022/07/03 02:32:48;;;;;;;1999.90;999.90;;;;;;;17.04;100.00;94688.28;5034215;28;20186;-58
2022/07/03 02:35:31;;;;;;;1999.90;999.90;;;;;;;17.03;100.00;94685.97;5034505;28;20297;-65
2022/07/03 02:38:04;;;;;;;1999.90;999.90;;;;;;;17.02;100.00;94668.66;5034485;28;20198;-68
2022/07/03 02:40:42;;;;;;;1999.90;999.90;;;;;;;17.01;100.00;94677.41;5034368;28;20252;-70
2022/07/03 02:43:33;;;;;;;1999.90;999.90;;;;;;;16.95;100.00;94662.69;5035215;28;20179;-68
2022/07/03 02:49:27;;;;;;;1999.90;999.90;;;;;;;16.94;100.00;94648.16;5035781;28;20186;-69
2022/07/03 02:52:12;;;;;;;1999.90;999.90;;;;;;;16.94;100.00;94639.88;5034823;28;20189;-48
2022/07/03 02:54:46;;;;;;;1999.90;999.90;;;;;;;16.94;100.00;94636.34;5034508;28;20193;-58
2022/07/03 02:57:14;;;;;;;1999.90;999.90;;;;;;;16.91;100.00;94629.75;5034346;28;20175;-49
2022/07/03 02:59:52;;;;;;;1999.90;999.90;;;;;;;16.94;100.00;94639.09;5034330;28;20186;-53
2022/07/03 03:02:26;;;;;;;1999.90;999.90;;;;;;;16.95;100.00;94632.34;5033932;28;20217;-53
2022/07/03 03:04:59;;;;;;;1999.90;999.90;;;;;;;16.94;100.00;94633.59;5033855;28;20185;-53
2022/07/03 03:07:33;;;;;;;1999.90;999.90;;;;;;;16.93;100.00;94621.03;5033970;28;20187;-53
2022/07/03 03:09:58;;;;;;;1999.90;999.90;;;;;;;16.90;100.00;94588.84;5034420;28;20186;-45
2022/07/03 03:12:31;;;;;;;1999.90;999.90;;;;;;;16.87;100.00;94564.94;5050290;28;20186;-52
2022/07/03 03:15:04;;;;;;;1999.90;999.90;;;;;;;16.82;100.00;94543.50;5033986;28;20205;-45
2022/07/03 03:17:49;;;;;;;1999.90;999.90;;;;;;;16.75;100.00;94521.78;5033606;28;20197;-46
2022/07/03 03:20:16;;;;;;;1999.90;999.90;;;;;;;16.72;100.00;94495.13;5033963;28;20188;-45
2022/07/03 03:22:58;;;;;;;1999.90;999.90;;;;;;;16.67;100.00;94488.22;5034490;28;20198;-44
2022/07/03 03:25:24;;;;;;;1999.90;999.90;;;;;;;16.66;100.00;94475.69;5033872;28;20193;-47
2022/07/03 03:27:50;;;;;;;1999.90;999.90;;;;;;;16.66;100.00;94458.38;5033646;28;20174;-45
2022/07/03 03:30:15;;;;;;;1999.90;999.90;;;;;;;16.66;100.00;94445.34;5033489;28;20186;-60
2022/07/03 03:32:41;;;;;;;1999.90;999.90;;;;;;;16.65;100.00;94430.06;5033377;28;20186;-65
2022/07/03 03:35:07;;;;;;;1999.90;999.90;;;;;;;16.66;100.00;94448.13;5033447;28;20200;-65
2022/07/03 03:37:33;;;;;;;1999.90;999.90;;;;;;;16.67;100.00;94437.88;5033759;28;20289;-65
2022/07/03 03:39:58;;;;;;;1999.90;999.90;;;;;;;16.71;100.00;94435.69;5033773;28;20264;-64
2022/07/03 03:42:24;;;;;;;1999.90;999.90;;;;;;;16.76;100.00;94421.25;5033130;28;20206;-65
2022/07/03 03:44:49;;;;;;;1999.90;999.90;;;;;;;16.78;100.00;94422.31;5033294;28;20178;-64
2022/07/03 03:47:14;;;;;;;1999.90;999.90;;;;;;;16.90;100.00;94429.59;5033111;28;20186;-55
2022/07/03 03:49:40;;;;;;;1999.90;999.90;;;;;;;17.05;100.00;94438.75;5033500;28;20190;-52
2022/07/03 03:52:06;;;;;;;1999.90;999.90;;;;;;;17.23;100.00;94446.91;5033607;28;20197;-63
2022/07/03 03:54:31;;;;;;;1999.90;999.90;;;;;;;17.37;100.00;94476.56;5033071;28;20243;-64
2022/07/03 03:56:57;;;;;;;1999.90;999.90;;;;;;;17.53;100.00;94486.50;5033053;28;20281;-64
2022/07/03 03:59:22;;;;;;;1999.90;999.90;;;;;;;17.72;100.00;94518.28;5033040;28;20240;-64
2022/07/03 04:01:47;;;;;;;1999.90;999.90;;;;;;;17.84;100.00;94542.91;5032999;28;20226;-64
2022/07/03 04:04:17;;;;;;;1999.90;999.90;;;;;;;17.78;100.00;94588.97;5033446;28;20186;-64
2022/07/03 04:06:43;;;;;;;1999.90;999.90;;;;;;;17.67;100.00;94601.78;5032764;28;20198;-65
2022/07/03 04:09:09;;;;;;;1999.90;999.90;;;;;;;17.66;100.00;94581.66;5033372;28;20187;-45
2022/07/03 04:11:34;;;;;;;1999.90;999.90;;;;;;;17.92;100.00;94590.28;5050209;28;20194;-46
2022/07/03 04:13:59;;;;;;;1999.90;999.90;;;;;;;18.36;100.00;94625.16;5032824;28;20193;-49
2022/07/03 04:16:25;;;;;;;1999.90;999.90;;;;;;;18.24;100.00;94694.47;5032840;28;20210;-47
2022/07/03 04:18:50;;;;;;;1999.90;999.90;;;;;;;18.37;100.00;94708.88;5032625;28;20189;-48
2022/07/03 04:21:15;;;;;;;1999.90;999.90;;;;;;;18.77;100.00;94745.19;5032677;28;20238;-47
2022/07/03 04:23:41;;;;;;;1999.90;999.90;;;;;;;19.33;100.00;94806.78;5032891;28;20265;-64
2022/07/03 04:26:06;;;;;;;1999.90;999.90;;;;;;;19.90;100.00;94909.13;5032790;28;20281;-53
2022/07/03 04:28:32;;;;;;;1999.90;999.90;;;;;;;20.27;100.00;94999.88;5032453;28;20214;-59
2022/07/03 04:30:58;;;;;;;1999.90;999.90;;;;;;;20.74;100.00;95077.47;5032588;28;20182;-59
2022/07/03 04:33:23;;;;;;;1999.90;999.90;;;;;;;21.25;100.00;95160.47;5033106;28;20202;-59
2022/07/03 04:35:48;;;;;;;1999.90;999.90;;;;;;;21.47;100.00;95233.91;5032779;28;20187;-59
2022/07/03 04:38:14;;;;;;;1999.90;999.90;;;;;;;21.61;100.00;95249.84;5032573;28;20363;-59
2022/07/03 04:40:39;;;;;;;1999.90;999.90;;;;;;;21.90;100.00;95276.91;5032442;28;20213;-59
2022/07/03 04:43:05;;;;;;;1999.90;999.90;;;;;;;22.23;100.00;95311.63;5048994;28;20193;-47
2022/07/03 04:45:30;;;;;;;1999.90;999.90;;;;;;;22.39;100.00;95333.41;5049411;28;20186;-69
2022/07/03 04:47:55;;;;;;;1999.90;999.90;;;;;;;22.30;100.00;95350.19;5031948;28;20194;-66
2022/07/03 04:50:21;;;;;;;1999.90;999.90;;;;;;;22.52;100.00;95361.72;5032154;28;20182;-68
2022/07/03 04:52:46;;;;;;;1999.90;999.90;;;;;;;22.90;100.00;95369.16;5032210;28;20186;-67
2022/07/03 04:55:12;;;;;;;1999.90;999.90;;;;;;;23.45;100.00;95408.25;5032356;28;20190;-69
2022/07/03 04:57:37;;;;;;;1999.90;999.90;;;;;;;23.47;100.00;95417.66;5032141;28;20212;-67
2022/07/03 05:00:04;;;;;;;1999.90;999.90;;;;;;;23.57;100.00;95421.09;5032262;28;20198;-70
2022/07/03 05:02:29;;;;;;;1999.90;999.90;;;;;;;23.98;100.00;95445.75;5031661;28;20214;-60
2022/07/03 05:04:55;;;;;;;1999.90;999.90;;;;;;;24.22;100.00;95462.28;5032176;28;20186;-55
2022/07/03 05:07:20;;;;;;;1999.90;999.90;;;;;;;24.31;100.00;95478.84;5031766;28;20202;-52
2022/07/03 05:09:45;;;;;;;1999.90;999.90;;;;;;;24.52;100.00;95488.75;5031787;28;20237;-55
2022/07/03 05:12:11;;;;;;;1999.90;999.90;;;;;;;24.96;100.00;95511.56;5032459;28;20197;-53
2022/07/03 05:14:36;;;;;;;1999.90;999.90;;;;;;;25.05;100.00;95514.97;5031793;28;20194;-55
2022/07/03 05:17:02;;;;;;;1999.90;999.90;;;;;;;25.35;100.00;95526.69;5031851;28;20194;-56
2022/07/03 05:19:27;;;;;;;1999.90;999.90;;;;;;;25.32;100.00;95527.69;5032481;28;20186;-59
2022/07/03 05:21:52;;;;;;;1999.90;999.90;;;;;;;25.81;100.00;95529.31;5032161;28;20348;-59
2022/07/03 05:24:18;;;;;;;1999.90;999.90;;;;;;;25.87;100.00;95544.88;5031991;28;20187;-60
2022/07/03 05:26:43;;;;;;;1999.90;999.90;;;;;;;26.71;100.00;95561.66;5031499;28;20195;-60
2022/07/03 05:29:08;;;;;;;1999.90;999.90;;;;;;;27.69;100.00;95587.59;5031826;28;20179;-60
2022/07/03 05:31:34;;;;;;;1999.90;999.90;;;;;;;28.28;100.00;95605.69;5031487;28;20194;-61
2022/07/03 05:33:59;;;;;;;1999.90;999.90;;;;;;;28.87;97.77;95622.16;5032047;28;20294;-59
2022/07/03 05:36:24;;;;;;;1999.90;999.90;;;;;;;28.94;96.10;95632.09;5031342;28;20222;-60
2022/07/03 05:41:34;;;;;;;1999.90;999.90;;;;;;;28.89;94.74;95624.44;5032895;28;20236;-55
2022/07/03 05:43:59;;;;;;;1999.90;999.90;;;;;;;29.28;93.16;95628.63;5031895;28;20195;-54
2022/07/03 05:46:24;;;;;;;1999.90;999.90;;;;;;;29.23;92.95;95631.47;5031396;28;20179;-56
2022/07/03 05:48:50;;;;;;;1999.90;999.90;;;;;;;29.80;88.98;95634.97;5031463;28;20186;-54
2022/07/03 05:51:15;;;;;;;1999.90;999.90;;;;;;;30.39;84.92;95645.50;5031344;28;20190;-55
2022/07/03 05:53:41;;;;;;;1999.90;999.90;;;;;;;31.01;80.25;95644.34;5031434;28;20206;-53
2022/07/03 05:56:06;;;;;;;1999.90;999.90;;;;;;;31.19;77.73;95660.53;5031824;28;20194;-61
2022/07/03 05:58:31;;;;;;;1999.90;999.90;;;;;;;31.47;75.89;95655.31;5031168;28;20195;-63
2022/07/03 06:00:57;;;;;;;1999.90;999.90;;;;;;;32.14;71.52;95652.25;5034026;28;20289;-60
2022/07/03 06:03:22;;;;;;;1999.90;999.90;;;;;;;32.31;68.13;95655.59;5035970;28;20186;-59
2022/07/03 06:05:47;;;;;;;1999.90;999.90;;;;;;;32.61;68.07;95654.03;5034512;28;20186;-65
2022/07/03 06:08:13;;;;;;;1999.90;999.90;;;;;;;33.07;65.75;95661.91;5034732;28;20270;-58
2022/07/03 06:10:38;;;;;;;1999.90;999.90;;;;;;;33.22;62.55;95653.59;5035045;28;20268;-69
2022/07/03 06:13:04;;;;;;;1999.90;999.90;;;;;;;33.59;60.09;95667.53;5051298;28;20197;-58
2022/07/03 06:15:29;;;;;;;1999.90;999.90;;;;;;;33.99;58.09;95667.41;5034678;28;20266;-62
2022/07/03 06:17:54;;;;;;;1999.90;999.90;;;;;;;33.97;57.15;95665.13;5034309;28;20179;-57
2022/07/03 06:20:20;;;;;;;1999.90;999.90;;;;;;;34.15;55.92;95669.09;5035114;28;20182;-57
2022/07/03 06:22:45;;;;;;;1999.90;999.90;;;;;;;34.85;52.75;95676.38;5034703;28;20207;-57
2022/07/03 06:25:12;;;;;;;1999.90;999.90;;;;;;;34.92;51.75;95667.91;5034372;28;20187;-57
2022/07/03 06:27:37;;;;;;;1999.90;999.90;;;;;;;34.78;51.11;95666.47;5034483;28;20293;-58
2022/07/03 06:30:03;;;;;;;1999.90;999.90;;;;;;;34.59;52.05;95663.09;5034411;28;20277;-58
2022/07/03 06:32:29;;;;;;;1999.90;999.90;;;;;;;34.43;52.34;95663.50;5034109;28;20231;-58
2022/07/03 06:34:54;;;;;;;1999.90;999.90;;;;;;;35.04;50.50;95657.00;5034019;28;20186;-57
2022/07/03 06:37:21;;;;;;;1999.90;999.90;;;;;;;35.66;47.06;95654.69;5034244;28;20244;-48
2022/07/03 06:39:46;;;;;;;1999.90;999.90;;;;;;;36.09;45.41;95660.31;5034175;28;20206;-45
2022/07/03 06:42:12;;;;;;;1999.90;999.90;;;;;;;36.02;45.40;95658.97;5034224;28;20316;-48
2022/07/03 06:44:37;;;;;;;1999.90;999.90;;;;;;;36.06;44.53;95658.63;5034075;28;20186;-45
2022/07/03 06:47:03;;;;;;;1999.90;999.90;;;;;;;36.29;44.46;95665.13;5034223;28;20186;-51
2022/07/03 06:49:29;;;;;;;1999.90;999.90;;;;;;;36.41;44.04;95655.66;5034436;28;20187;-46
2022/07/03 06:51:55;;;;;;;1999.90;999.90;;;;;;;36.80;44.45;95645.03;5034577;28;20187;-68
2022/07/03 06:54:20;;;;;;;1999.90;999.90;;;;;;;37.07;42.27;95652.56;5034101;28;20193;-64
2022/07/03 06:56:45;;;;;;;1999.90;999.90;;;;;;;37.64;40.05;95659.31;5034040;28;20175;-63
2022/07/03 06:59:11;;;;;;;1999.90;999.90;;;;;;;37.49;39.86;95659.34;5033974;28;20277;-62
2022/07/03 07:01:36;;;;;;;1999.90;999.90;;;;;;;38.81;37.33;95665.44;5033733;28;20297;-63
2022/07/03 07:04:02;;;;;;;1999.90;999.90;;;;;;;38.39;36.64;95663.84;5033816;28;20198;-63
2022/07/03 07:06:28;;;;;;;1999.90;999.90;;;;;;;38.61;35.25;95658.00;5034062;28;20182;-63
2022/07/03 07:08:53;;;;;;;1999.90;999.90;;;;;;;38.32;36.59;95667.50;5033562;28;20192;-67
2022/07/03 07:11:19;;;;;;;1999.90;999.90;;;;;;;38.68;36.09;95656.41;5033559;28;20246;-69
2022/07/03 07:13:44;;;;;;;1999.90;999.90;;;;;;;38.42;36.69;95657.72;5033857;28;20187;-61
2022/07/03 07:16:10;;;;;;;1999.90;999.90;;;;;;;38.63;35.17;95666.72;5033658;28;20182;-61
2022/07/03 07:18:35;;;;;;;1999.90;999.90;;;;;;;38.72;35.81;95674.69;5033837;28;20205;-62
2022/07/03 07:21:01;;;;;;;1999.90;999.90;;;;;;;39.47;34.35;95667.47;5033837;28;20209;-62
2022/07/03 07:23:26;;;;;;;1999.90;999.90;;;;;;;39.43;34.07;95672.88;5034776;28;20259;-62
2022/07/03 07:25:52;;;;;;;1999.90;999.90;;;;;;;39.69;33.97;95668.56;5033573;28;20185;-61
2022/07/03 07:28:18;;;;;;;1999.90;999.90;;;;;;;39.46;33.61;95665.25;5033504;28;20182;-60
2022/07/03 07:30:43;;;;;;;1999.90;999.90;;;;;;;39.79;33.78;95663.72;5033398;28;20261;-65
2022/07/03 07:33:09;;;;;;;1999.90;999.90;;;;;;;39.42;34.22;95662.00;5033687;28;20189;-66
2022/07/03 07:35:35;;;;;;;1999.90;999.90;;;;;;;39.36;34.56;95659.41;5033309;28;20198;-66
2022/07/03 07:38:01;;;;;;;1999.90;999.90;;;;;;;40.02;32.66;95667.03;5033701;28;20206;-64
2022/07/03 07:40:26;;;;;;;1999.90;999.90;;;;;;;39.86;32.71;95666.47;5033203;28;20182;-66
2022/07/03 07:42:51;;;;;;;1999.90;999.90;;;;;;;41.21;30.84;95660.78;5033198;28;20264;-66
2022/07/03 07:45:17;;;;;;;1999.90;999.90;;;;;;;40.78;31.51;95658.84;5033389;28;20190;-47
2022/07/03 07:47:42;;;;;;;1999.90;999.90;;;;;;;40.81;30.98;95658.41;5033110;28;20194;-56
2022/07/03 07:50:08;;;;;;;1999.90;999.90;;;;;;;41.19;30.18;95664.28;5033437;28;20187;-62
2022/07/03 07:52:34;;;;;;;1999.90;999.90;;;;;;;41.02;30.14;95657.84;5033516;28;20189;-63
2022/07/03 07:54:59;;;;;;;1999.90;999.90;;;;;;;41.30;30.22;95666.56;5033374;28;20183;-63
2022/07/03 07:57:25;;;;;;;1999.90;999.90;;;;;;;41.53;28.80;95669.00;5033205;28;20182;-63
2022/07/03 07:59:51;;;;;;;1999.90;999.90;;;;;;;41.42;29.43;95663.81;5033020;28;20209;-64
2022/07/03 08:07:44;;;;;;;1999.90;999.90;;;;;;;41.46;29.17;95658.41;5034261;28;20201;-51
2022/07/03 08:10:09;;;;;;;1999.90;999.90;;;;;;;41.30;29.36;95662.91;5032942;28;20190;-48
2022/07/03 08:12:35;;;;;;;1999.90;999.90;;;;;;;41.84;28.42;95653.44;5032695;28;20189;-51
2022/07/03 08:15:00;;;;;;;1999.90;999.90;;;;;;;41.21;29.11;95660.78;5032989;28;20213;-50
2022/07/03 08:17:26;;;;;;;1999.90;999.90;;;;;;;41.07;28.60;95651.13;5033000;28;20182;-51
2022/07/03 08:19:51;;;;;;;1999.90;999.90;;;;;;;41.16;28.15;95654.00;5032506;28;20182;-48
2022/07/03 08:22:16;;;;;;;1999.90;999.90;;;;;;;41.22;27.87;95659.44;5031883;28;20210;-47
2022/07/03 08:24:42;;;;;;;1999.90;999.90;;;;;;;41.00;28.10;95657.72;5032645;28;20190;-58
2022/07/03 08:27:07;;;;;;;1999.90;999.90;;;;;;;41.08;28.64;95658.34;5032833;28;20229;-72
2022/07/03 08:29:32;;;;;;;1999.90;999.90;;;;;;;41.11;29.01;95655.03;5032801;28;20213;-71
2022/07/03 08:31:58;;;;;;;1999.90;999.90;;;;;;;40.73;28.67;95645.53;5032369;28;20232;-72
2022/07/03 08:34:23;;;;;;;1999.90;999.90;;;;;;;40.58;28.58;95648.63;5032661;28;20225;-70
2022/07/03 08:36:49;;;;;;;1999.90;999.90;;;;;;;41.25;27.93;95646.75;5032859;28;20193;-71
2022/07/03 08:39:14;;;;;;;1999.90;999.90;;;;;;;41.16;27.97;95647.50;5031926;28;20209;-73
2022/07/03 08:41:41;;;;;;;1999.90;999.90;;;;;;;41.21;27.32;95646.44;5032310;28;20203;-64
2022/07/03 08:44:08;;;;;;;1999.90;999.90;;;;;;;41.00;28.48;95651.97;5032312;28;20228;-61
2022/07/03 08:46:35;;;;;;;1999.90;999.90;;;;;;;41.47;28.76;95642.72;5032295;28;20197;-61
2022/07/03 08:49:02;;;;;;;1999.90;999.90;;;;;;;41.80;26.43;95638.03;5032174;28;20175;-60
2022/07/03 08:51:27;;;;;;;1999.90;999.90;;;;;;;41.79;26.66;95645.09;5032234;28;20222;-59
2022/07/03 08:53:54;;;;;;;1999.90;999.90;;;;;;;42.43;25.83;95638.34;5032236;28;20216;-60
2022/07/03 08:56:22;;;;;;;1999.90;999.90;;;;;;;42.23;25.55;95639.75;5032559;28;20190;-60
2022/07/03 08:58:47;;;;;;;1999.90;999.90;;;;;;;42.04;26.19;95645.53;5032380;28;20189;-67
2022/07/03 09:01:16;;;;;;;1999.90;999.90;;;;;;;41.59;26.44;95638.63;5032694;28;20206;-60
2022/07/03 09:03:42;;;;;;;1999.90;999.90;;;;;;;41.60;26.74;95639.38;5032080;28;20209;-50
2022/07/03 09:06:07;;;;;;;1999.90;999.90;;;;;;;41.34;26.48;95640.25;5032341;28;20186;-48
2022/07/03 09:08:34;;;;;;;1999.90;999.90;;;;;;;41.43;26.99;95642.38;5032551;28;20186;-51
2022/07/03 09:10:59;;;;;;;1999.90;999.90;;;;;;;41.56;26.13;95633.34;5032127;28;20234;-47
2022/07/03 09:13:25;;;;;;;1999.90;999.90;;;;;;;41.53;25.94;95634.53;5032373;28;20182;-47
2022/07/03 09:15:50;;;;;;;1999.90;999.90;;;;;;;41.92;25.76;95635.28;5031763;28;20206;-58
2022/07/03 09:18:16;;;;;;;1999.90;999.90;;;;;;;41.92;25.34;95635.28;5033117;28;20186;-52
2022/07/03 09:20:42;;;;;;;1999.90;999.90;;;;;;;41.71;25.58;95639.53;5031777;28;20205;-59
2022/07/03 09:23:22;;;;;;;1999.90;999.90;;;;;;;41.52;26.90;95639.56;5031684;28;20214;-62
2022/07/03 09:26:02;;;;;;;1999.90;999.90;;;;;;;41.38;26.59;95638.47;5033021;28;20170;-60
2022/07/03 09:28:43;;;;;;;1999.90;999.90;;;;;;;41.00;26.94;95634.75;5032008;28;20201;-56
2022/07/03 09:31:10;;;;;;;1999.90;999.90;;;;;;;41.31;26.26;95632.84;5032176;28;20197;-60
2022/07/03 09:33:35;;;;;;;1999.90;999.90;;;;;;;41.80;25.80;95640.88;5032776;28;20182;-58
2022/07/03 09:36:01;;;;;;;1999.90;999.90;;;;;;;41.80;24.87;95623.66;5035177;28;20192;-58
2022/07/03 09:38:26;;;;;;;1999.90;999.90;;;;;;;41.17;25.70;95626.03;5035275;28;20259;-60
2022/07/03 09:40:56;;;;;;;1999.90;999.90;;;;;;;41.54;25.93;95630.31;5051694;28;20330;-69
2022/07/03 09:43:29;;;;;;;1999.90;999.90;;;;;;;40.83;25.00;95634.88;5035591;28;20186;-69
2022/07/03 09:45:57;;;;;;;1999.90;999.90;;;;;;;40.75;24.02;95631.38;5035162;28;20201;-61
2022/07/03 09:48:23;;;;;;;1999.90;999.90;;;;;;;40.05;24.02;95640.06;5035097;28;20208;-66
2022/07/03 09:50:48;;;;;;;1999.90;999.90;;;;;;;40.45;23.64;95631.84;5034733;28;20189;-68
2022/07/03 09:53:14;;;;;;;1999.90;999.90;;;;;;;40.62;23.20;95632.56;5035176;28;20187;-67
2022/07/03 09:55:39;;;;;;;1999.90;999.90;;;;;;;40.98;22.91;95635.38;5034860;28;20274;-64
2022/07/03 09:58:04;;;;;;;1999.90;999.90;;;;;;;41.12;22.79;95635.72;5034677;28;20265;-64
2022/07/03 10:00:35;;;;;;;1999.90;999.90;;;;;;;41.33;22.67;95630.88;5034879;28;20197;-69
2022/07/03 10:03:07;;;;;;;1999.90;999.90;;;;;;;41.39;22.72;95633.47;5034774;28;20301;-64
2022/07/03 10:05:42;;;;;;;1999.90;999.90;;;;;;;41.24;22.51;95625.16;5034750;28;20248;-64
2022/07/03 10:08:15;;;;;;;1999.90;999.90;;;;;;;41.01;22.83;95624.78;5035852;28;20218;-65
2022/07/03 10:10:42;;;;;;;1999.90;999.90;;;;;;;40.82;23.44;95619.03;5034552;28;20183;-63
2022/07/03 10:13:08;;;;;;;1999.90;999.90;;;;;;;40.64;23.73;95626.22;5035042;28;20190;-61
2022/07/03 10:15:38;;;;;;;1999.90;999.90;;;;;;;40.77;24.62;95617.97;5034759;28;20237;-60
2022/07/03 10:18:13;;;;;;;1999.90;999.90;;;;;;;40.77;24.48;95626.56;5034594;28;20214;-58
2022/07/03 10:20:45;;;;;;;1999.90;999.90;;;;;;;41.00;27.87;95617.56;5034986;28;20192;-58
2022/07/03 10:23:11;;;;;;;1999.90;999.90;;;;;;;41.01;23.87;95601.84;5034738;28;20309;-58
2022/07/03 10:25:40;;;;;;;1999.90;999.90;;;;;;;40.47;25.69;95606.22;5035628;28;20210;-57
2022/07/03 10:28:06;;;;;;;1999.90;999.90;;;;;;;40.91;30.35;95610.44;5034244;28;20182;-59
2022/07/03 10:30:32;;;;;;;1999.90;999.90;;;;;;;40.10;33.84;95602.56;5034323;28;20232;-62
2022/07/03 10:32:58;;;;;;;1999.90;999.90;;;;;;;39.82;29.86;95605.25;5034535;28;20218;-58
2022/07/03 10:35:32;;;;;;;1999.90;999.90;;;;;;;39.85;27.47;95598.34;5034399;28;20274;-57
2022/07/03 10:38:00;;;;;;;1999.90;999.90;;;;;;;38.87;28.98;95608.03;5034529;28;20237;-58
2022/07/03 10:46:31;;;;;;;1999.90;999.90;;;;;;;39.62;25.06;95612.19;5034919;28;20227;-58
2022/07/03 10:49:08;;;;;;;1999.90;999.90;;;;;;;39.68;22.30;95604.09;5034453;28;20201;-57
2022/07/03 10:51:45;;;;;;;1999.90;999.90;;;;;;;39.68;23.27;95604.84;5034621;28;20193;-58
2022/07/03 10:54:17;;;;;;;1999.90;999.90;;;;;;;39.41;23.16;95594.72;5035173;28;20276;-58
2022/07/03 10:56:57;;;;;;;1999.90;999.90;;;;;;;39.84;23.52;95596.84;5035041;28;20197;-58
2022/07/03 10:59:23;;;;;;;1999.90;999.90;;;;;;;39.62;22.61;95603.59;5033929;28;20186;-58
2022/07/03 11:01:48;;;;;;;1999.90;999.90;;;;;;;39.10;22.91;95597.91;5034058;28;20259;-58
2022/07/03 11:04:13;;;;;;;1999.90;999.90;;;;;;;38.55;23.12;95594.63;5050672;28;20277;-58
2022/07/03 11:06:42;;;;;;;1999.90;999.90;;;;;;;38.83;23.71;95599.13;5033989;28;20194;-59
2022/07/03 11:09:09;;;;;;;1999.90;999.90;;;;;;;38.65;24.25;95595.50;5033470;28;20182;-60
2022/07/03 11:11:55;;;;;;;1999.90;999.90;;;;;;;39.40;21.98;95593.22;5034316;28;20202;-59